sensor_id;sensor_type;location;lat;lon;timestamp;P1;durP1;ratioP1;P2;durP2;ratioP2
45314;SDS011;31051;51.540;5.852;2023-05-02T00:02:32;24.6;;;21.4;;
45314;SDS011;31051;51.540;5.852;2023-05-02T00:15:31;24.4;;;20.7;;
45314;SDS011;31051;51.540;5.852;2023-05-02T00:28:30;23.0;;;19.5;;
45314;SDS011;31051;51.540;5.852;2023-05-02T00:41:30;20.8;;;18.0;;
45314;SDS011;31051;51.540;5.852;2023-05-02T00:54:29;20.5;;;17.7;;
45314;SDS011;31051;51.540;5.852;2023-05-02T01:07:28;20.0;;;17.2;;
45314;SDS011;31051;51.540;5.852;2023-05-02T01:20:27;18.5;;;16.2;;
45314;SDS011;31051;51.540;5.852;2023-05-02T01:33:27;20.0;;;17.5;;
45314;SDS011;31051;51.540;5.852;2023-05-02T01:46:26;19.7;;;17.6;;
45314;SDS011;31051;51.540;5.852;2023-05-02T01:59:25;16.3;;;14.7;;
45314;SDS011;31051;51.540;5.852;2023-05-02T02:12:25;17.2;;;15.5;;
45314;SDS011;31051;51.540;5.852;2023-05-02T02:25:24;16.7;;;14.9;;
45314;SDS011;31051;51.540;5.852;2023-05-02T02:38:23;18.7;;;16.6;;
45314;SDS011;31051;51.540;5.852;2023-05-02T02:51:23;17.5;;;15.7;;
45314;SDS011;31051;51.540;5.852;2023-05-02T03:04:22;18.9;;;16.4;;
45314;SDS011;31051;51.540;5.852;2023-05-02T03:17:21;18.5;;;16.1;;
45314;SDS011;31051;51.540;5.852;2023-05-02T03:30:21;18.0;;;15.8;;
45314;SDS011;31051;51.540;5.852;2023-05-02T03:43:20;17.8;;;15.7;;
45314;SDS011;31051;51.540;5.852;2023-05-02T03:56:19;11.3;;;9.3;;
45314;SDS011;31051;51.540;5.852;2023-05-02T04:22:18;8.1;;;4.6;;
45314;SDS011;31051;51.540;5.852;2023-05-02T04:35:17;8.5;;;4.2;;
45314;SDS011;31051;51.540;5.852;2023-05-02T04:48:16;8.2;;;3.9;;
45314;SDS011;31051;51.540;5.852;2023-05-02T05:01:16;7.2;;;3.5;;
45314;SDS011;31051;51.540;5.852;2023-05-02T05:14:15;7.2;;;2.5;;
45314;SDS011;31051;51.540;5.852;2023-05-02T05:27:14;6.9;;;2.4;;
45314;SDS011;31051;51.540;5.852;2023-05-02T05:40:14;6.3;;;2.6;;
45314;SDS011;31051;51.540;5.852;2023-05-02T06:06:12;8.1;;;2.8;;
45314;SDS011;31051;51.540;5.852;2023-05-02T06:19:12;7.3;;;2.4;;
45314;SDS011;31051;51.540;5.852;2023-05-02T06:32:11;7.0;;;2.5;;
45314;SDS011;31051;51.540;5.852;2023-05-02T06:45:10;7.4;;;2.8;;
45314;SDS011;31051;51.540;5.852;2023-05-02T06:58:09;7.6;;;2.5;;
45314;SDS011;31051;51.540;5.852;2023-05-02T07:11:09;7.3;;;2.4;;
45314;SDS011;31051;51.540;5.852;2023-05-02T07:24:08;7.4;;;2.0;;
45314;SDS011;31051;51.540;5.852;2023-05-02T07:37:07;6.1;;;2.2;;
45314;SDS011;31051;51.540;5.852;2023-05-02T07:50:07;7.0;;;2.5;;
45314;SDS011;31051;51.540;5.852;2023-05-02T08:03:06;7.5;;;2.4;;
45314;SDS011;31051;51.540;5.852;2023-05-02T08:16:05;7.2;;;2.6;;
45314;SDS011;31051;51.540;5.852;2023-05-02T08:29:04;6.4;;;2.4;;
45314;SDS011;31051;51.540;5.852;2023-05-02T08:42:04;8.8;;;2.8;;
45314;SDS011;31051;51.540;5.852;2023-05-02T08:55:03;7.4;;;2.3;;
45314;SDS011;31051;51.540;5.852;2023-05-02T09:08:02;6.8;;;2.2;;
45314;SDS011;31051;51.540;5.852;2023-05-02T09:21:02;5.8;;;2.2;;
45314;SDS011;31051;51.540;5.852;2023-05-02T09:34:01;5.7;;;2.0;;
45314;SDS011;31051;51.540;5.852;2023-05-02T09:47:00;5.8;;;1.9;;
45314;SDS011;31051;51.540;5.852;2023-05-02T10:00:00;6.9;;;2.2;;
45314;SDS011;31051;51.540;5.852;2023-05-02T10:12:59;7.4;;;2.8;;
45314;SDS011;31051;51.540;5.852;2023-05-02T10:25:58;6.6;;;2.5;;
45314;SDS011;31051;51.540;5.852;2023-05-02T10:38:58;7.6;;;2.3;;
45314;SDS011;31051;51.540;5.852;2023-05-02T10:51:57;6.5;;;2.2;;
45314;SDS011;31051;51.540;5.852;2023-05-02T11:04:57;6.0;;;2.1;;
45314;SDS011;31051;51.540;5.852;2023-05-02T11:17:56;6.2;;;2.1;;
45314;SDS011;31051;51.540;5.852;2023-05-02T11:30:55;4.9;;;1.9;;
45314;SDS011;31051;51.540;5.852;2023-05-02T11:43:55;5.4;;;2.1;;
45314;SDS011;31051;51.540;5.852;2023-05-02T11:56:54;5.4;;;2.2;;
45314;SDS011;31051;51.540;5.852;2023-05-02T12:09:53;4.4;;;2.1;;
45314;SDS011;31051;51.540;5.852;2023-05-02T12:22:53;7.3;;;2.7;;
45314;SDS011;31051;51.540;5.852;2023-05-02T12:35:52;5.1;;;2.4;;
45314;SDS011;31051;51.540;5.852;2023-05-02T12:48:51;5.0;;;2.6;;
45314;SDS011;31051;51.540;5.852;2023-05-02T13:01:51;5.2;;;2.5;;
45314;SDS011;31051;51.540;5.852;2023-05-02T13:14:50;5.1;;;2.5;;
45314;SDS011;31051;51.540;5.852;2023-05-02T13:27:50;5.5;;;2.4;;
45314;SDS011;31051;51.540;5.852;2023-05-02T13:40:48;6.3;;;2.7;;
45314;SDS011;31051;51.540;5.852;2023-05-02T13:53:37;5.7;;;2.7;;
45314;SDS011;31051;51.540;5.852;2023-05-02T14:06:37;7.1;;;2.9;;
45314;SDS011;31051;51.540;5.852;2023-05-02T14:19:36;6.1;;;2.7;;
45314;SDS011;31051;51.540;5.852;2023-05-02T14:32:35;12.9;;;3.0;;
45314;SDS011;31051;51.540;5.852;2023-05-02T14:45:35;6.8;;;2.9;;
45314;SDS011;31051;51.540;5.852;2023-05-02T14:58:34;6.1;;;2.9;;
45314;SDS011;31051;51.540;5.852;2023-05-02T15:11:33;6.4;;;2.7;;
45314;SDS011;31051;51.540;5.852;2023-05-02T15:24:33;6.8;;;2.9;;
45314;SDS011;31051;51.540;5.852;2023-05-02T15:37:32;8.0;;;3.4;;
45314;SDS011;31051;51.540;5.852;2023-05-02T15:50:31;8.5;;;3.4;;
45314;SDS011;31051;51.540;5.852;2023-05-02T16:03:31;8.7;;;3.6;;
45314;SDS011;31051;51.540;5.852;2023-05-02T16:16:30;7.5;;;3.5;;
45314;SDS011;31051;51.540;5.852;2023-05-02T16:29:29;8.7;;;3.5;;
45314;SDS011;31051;51.540;5.852;2023-05-02T16:42:29;8.0;;;3.6;;
45314;SDS011;31051;51.540;5.852;2023-05-02T16:55:28;9.2;;;3.6;;
45314;SDS011;31051;51.540;5.852;2023-05-02T17:08:27;8.5;;;3.4;;
45314;SDS011;31051;51.540;5.852;2023-05-02T17:21:27;9.1;;;3.6;;
45314;SDS011;31051;51.540;5.852;2023-05-02T17:34:26;7.7;;;3.2;;
45314;SDS011;31051;51.540;5.852;2023-05-02T17:47:26;8.2;;;3.3;;
45314;SDS011;31051;51.540;5.852;2023-05-02T18:00:25;7.4;;;3.0;;
45314;SDS011;31051;51.540;5.852;2023-05-02T18:13:24;7.6;;;3.0;;
45314;SDS011;31051;51.540;5.852;2023-05-02T18:26:23;6.5;;;2.6;;
45314;SDS011;31051;51.540;5.852;2023-05-02T18:39:23;5.9;;;2.5;;
45314;SDS011;31051;51.540;5.852;2023-05-02T18:52:22;5.9;;;2.4;;
45314;SDS011;31051;51.540;5.852;2023-05-02T19:05:21;6.0;;;2.3;;
45314;SDS011;31051;51.540;5.852;2023-05-02T19:18:20;4.7;;;2.3;;
45314;SDS011;31051;51.540;5.852;2023-05-02T19:31:20;4.9;;;2.4;;
45314;SDS011;31051;51.540;5.852;2023-05-02T19:44:19;4.7;;;2.4;;
45314;SDS011;31051;51.540;5.852;2023-05-02T19:57:18;4.1;;;2.4;;
45314;SDS011;31051;51.540;5.852;2023-05-02T20:10:17;5.3;;;2.5;;
45314;SDS011;31051;51.540;5.852;2023-05-02T20:23:17;6.0;;;2.6;;
45314;SDS011;31051;51.540;5.852;2023-05-02T20:36:16;4.6;;;2.6;;
45314;SDS011;31051;51.540;5.852;2023-05-02T20:49:15;4.7;;;2.5;;
45314;SDS011;31051;51.540;5.852;2023-05-02T21:02:15;5.7;;;2.6;;
45314;SDS011;31051;51.540;5.852;2023-05-02T21:15:14;4.2;;;2.5;;
45314;SDS011;31051;51.540;5.852;2023-05-02T21:28:13;3.3;;;2.4;;
45314;SDS011;31051;51.540;5.852;2023-05-02T21:41:12;4.0;;;2.7;;
45314;SDS011;31051;51.540;5.852;2023-05-02T21:54:12;4.3;;;3.1;;
45314;SDS011;31051;51.540;5.852;2023-05-02T22:07:11;4.6;;;3.1;;
45314;SDS011;31051;51.540;5.852;2023-05-02T22:20:10;4.2;;;3.1;;
45314;SDS011;31051;51.540;5.852;2023-05-02T22:33:09;4.3;;;3.0;;
45314;SDS011;31051;51.540;5.852;2023-05-02T22:46:08;5.1;;;3.1;;
45314;SDS011;31051;51.540;5.852;2023-05-02T22:59:08;4.4;;;2.8;;
45314;SDS011;31051;51.540;5.852;2023-05-02T23:12:07;4.2;;;2.9;;
45314;SDS011;31051;51.540;5.852;2023-05-02T23:25:06;4.8;;;2.7;;
45314;SDS011;31051;51.540;5.852;2023-05-02T23:38:05;5.0;;;2.7;;
45314;SDS011;31051;51.540;5.852;2023-05-02T23:51:04;4.7;;;2.7;;
